sensor_id;sensor_type;location;lat;lon;timestamp;temperature;humidity
4431;DHT22;2228;48.140;11.488;2023-04-03T00:00:48;3.00;1.00
4431;DHT22;2228;48.140;11.488;2023-04-03T00:03:16;3.00;1.00
4431;DHT22;2228;48.140;11.488;2023-04-03T00:05:43;3.00;1.00
4431;DHT22;2228;48.140;11.488;2023-04-03T00:08:25;3.00;1.00
4431;DHT22;2228;48.140;11.488;2023-04-03T00:10:53;2.90;1.00
4431;DHT22;2228;48.140;11.488;2023-04-03T00:13:20;2.90;1.00
4431;DHT22;2228;48.140;11.488;2023-04-03T00:15:49;2.90;1.00
4431;DHT22;2228;48.140;11.488;2023-04-03T00:18:18;3.00;1.00
4431;DHT22;2228;48.140;11.488;2023-04-03T00:20:45;3.00;1.00
4431;DHT22;2228;48.140;11.488;2023-04-03T00:23:15;2.90;1.00
4431;DHT22;2228;48.140;11.488;2023-04-03T00:25:43;2.90;1.00
4431;DHT22;2228;48.140;11.488;2023-04-03T00:28:12;2.80;1.00
4431;DHT22;2228;48.140;11.488;2023-04-03T00:30:41;2.80;1.00
4431;DHT22;2228;48.140;11.488;2023-04-03T00:33:10;2.80;1.00
4431;DHT22;2228;48.140;11.488;2023-04-03T00:35:40;2.70;1.00
4431;DHT22;2228;48.140;11.488;2023-04-03T00:38:08;2.70;1.00
4431;DHT22;2228;48.140;11.488;2023-04-03T00:48:52;2.60;99.20
4431;DHT22;2228;48.140;11.488;2023-04-03T00:51:22;2.70;16.50
4431;DHT22;2228;48.140;11.488;2023-04-03T00:53:53;2.60;1.00
4431;DHT22;2228;48.140;11.488;2023-04-03T00:56:23;2.60;43.10
4431;DHT22;2228;48.140;11.488;2023-04-03T00:58:53;2.60;93.90
4431;DHT22;2228;48.140;11.488;2023-04-03T01:01:23;2.70;93.80
4431;DHT22;2228;48.140;11.488;2023-04-03T01:03:55;2.60;4.40
4431;DHT22;2228;48.140;11.488;2023-04-03T01:06:27;2.70;99.90
4431;DHT22;2228;48.140;11.488;2023-04-03T01:08:56;2.90;99.90
4431;DHT22;2228;48.140;11.488;2023-04-03T01:11:23;3.00;33.00
4431;DHT22;2228;48.140;11.488;2023-04-03T01:13:51;3.10;1.00
4431;DHT22;2228;48.140;11.488;2023-04-03T01:16:19;3.00;1.00
4431;DHT22;2228;48.140;11.488;2023-04-03T01:18:47;2.90;1.00
4431;DHT22;2228;48.140;11.488;2023-04-03T01:21:47;2.90;1.00
4431;DHT22;2228;48.140;11.488;2023-04-03T01:24:30;2.90;1.00
4431;DHT22;2228;48.140;11.488;2023-04-03T01:26:59;2.80;1.00
4431;DHT22;2228;48.140;11.488;2023-04-03T01:29:27;2.80;1.00
4431;DHT22;2228;48.140;11.488;2023-04-03T08:35:21;6.20;1.00
4431;DHT22;2228;48.140;11.488;2023-04-03T08:37:50;5.90;1.00
4431;DHT22;2228;48.140;11.488;2023-04-03T08:40:21;5.90;1.00
4431;DHT22;2228;48.140;11.488;2023-04-03T08:42:57;6.00;1.00
4431;DHT22;2228;48.140;11.488;2023-04-03T08:45:37;6.20;1.00
4431;DHT22;2228;48.140;11.488;2023-04-03T08:48:13;6.20;1.00
4431;DHT22;2228;48.140;11.488;2023-04-03T08:50:45;6.20;1.00
4431;DHT22;2228;48.140;11.488;2023-04-03T08:53:19;6.30;1.00
4431;DHT22;2228;48.140;11.488;2023-04-03T08:55:53;6.60;1.00
4431;DHT22;2228;48.140;11.488;2023-04-03T08:58:23;6.80;1.00
4431;DHT22;2228;48.140;11.488;2023-04-03T09:01:16;6.70;1.00
4431;DHT22;2228;48.140;11.488;2023-04-03T09:03:55;6.60;1.00
4431;DHT22;2228;48.140;11.488;2023-04-03T09:06:33;6.60;1.00
4431;DHT22;2228;48.140;11.488;2023-04-03T12:26:23;10.70;1.00
4431;DHT22;2228;48.140;11.488;2023-04-03T12:28:53;10.40;1.00
4431;DHT22;2228;48.140;11.488;2023-04-03T12:31:25;10.30;1.00
4431;DHT22;2228;48.140;11.488;2023-04-03T12:34:12;10.90;1.00
4431;DHT22;2228;48.140;11.488;2023-04-03T12:36:48;11.60;1.00
4431;DHT22;2228;48.140;11.488;2023-04-03T12:39:33;11.90;1.00
4431;DHT22;2228;48.140;11.488;2023-04-03T12:42:15;11.00;99.90
4431;DHT22;2228;48.140;11.488;2023-04-03T12:44:52;10.50;99.90
4431;DHT22;2228;48.140;11.488;2023-04-03T12:47:26;10.20;99.90
4431;DHT22;2228;48.140;11.488;2023-04-03T12:49:54;9.90;99.90
4431;DHT22;2228;48.140;11.488;2023-04-03T12:52:35;9.50;99.90
4431;DHT22;2228;48.140;11.488;2023-04-03T12:55:11;9.70;99.90
4431;DHT22;2228;48.140;11.488;2023-04-03T12:57:54;9.80;99.90
4431;DHT22;2228;48.140;11.488;2023-04-03T13:00:33;10.40;99.90
4431;DHT22;2228;48.140;11.488;2023-04-03T13:03:01;11.00;99.90
4431;DHT22;2228;48.140;11.488;2023-04-03T13:05:30;11.40;99.90
4431;DHT22;2228;48.140;11.488;2023-04-03T13:08:00;11.70;99.90
4431;DHT22;2228;48.140;11.488;2023-04-03T13:10:29;11.50;99.90
4431;DHT22;2228;48.140;11.488;2023-04-03T13:13:06;11.30;99.90
4431;DHT22;2228;48.140;11.488;2023-04-03T13:15:41;11.10;99.90
4431;DHT22;2228;48.140;11.488;2023-04-03T13:18:23;11.50;99.90
4431;DHT22;2228;48.140;11.488;2023-04-03T13:20:50;11.90;99.90
4431;DHT22;2228;48.140;11.488;2023-04-03T13:23:19;12.30;99.90
4431;DHT22;2228;48.140;11.488;2023-04-03T13:25:48;12.50;99.90
4431;DHT22;2228;48.140;11.488;2023-04-03T13:28:21;13.40;99.90
4431;DHT22;2228;48.140;11.488;2023-04-03T13:31:01;14.10;99.90
4431;DHT22;2228;48.140;11.488;2023-04-03T13:33:31;13.10;99.90
4431;DHT22;2228;48.140;11.488;2023-04-03T13:36:03;12.00;99.90
4431;DHT22;2228;48.140;11.488;2023-04-03T13:38:33;11.00;99.90
4431;DHT22;2228;48.140;11.488;2023-04-03T13:41:04;10.50;99.90
4431;DHT22;2228;48.140;11.488;2023-04-03T13:43:34;9.50;99.90
4431;DHT22;2228;48.140;11.488;2023-04-03T13:46:20;8.90;99.90
4431;DHT22;2228;48.140;11.488;2023-04-03T13:48:49;8.70;99.90
4431;DHT22;2228;48.140;11.488;2023-04-03T13:51:22;8.60;99.90
4431;DHT22;2228;48.140;11.488;2023-04-03T13:53:52;8.40;99.90
4431;DHT22;2228;48.140;11.488;2023-04-03T13:56:26;8.30;99.90
4431;DHT22;2228;48.140;11.488;2023-04-03T13:59:00;8.30;99.90
4431;DHT22;2228;48.140;11.488;2023-04-03T14:01:41;8.10;99.90
4431;DHT22;2228;48.140;11.488;2023-04-03T14:04:16;8.30;99.90
4431;DHT22;2228;48.140;11.488;2023-04-03T14:06:43;8.50;99.90
4431;DHT22;2228;48.140;11.488;2023-04-03T14:09:11;8.50;99.90
4431;DHT22;2228;48.140;11.488;2023-04-03T14:11:38;8.20;99.90
4431;DHT22;2228;48.140;11.488;2023-04-03T14:14:12;8.00;99.90
4431;DHT22;2228;48.140;11.488;2023-04-03T14:16:42;7.90;99.90
4431;DHT22;2228;48.140;11.488;2023-04-03T14:19:19;7.80;99.90
4431;DHT22;2228;48.140;11.488;2023-04-03T14:21:46;7.90;99.90
4431;DHT22;2228;48.140;11.488;2023-04-03T14:24:13;8.20;99.90
4431;DHT22;2228;48.140;11.488;2023-04-03T14:26:40;8.40;99.90
4431;DHT22;2228;48.140;11.488;2023-04-03T14:29:11;8.60;99.90
4431;DHT22;2228;48.140;11.488;2023-04-03T14:31:39;8.40;99.90
4431;DHT22;2228;48.140;11.488;2023-04-03T14:34:06;7.90;99.90
4431;DHT22;2228;48.140;11.488;2023-04-03T14:36:33;8.20;99.90
4431;DHT22;2228;48.140;11.488;2023-04-03T14:39:01;8.80;99.90
4431;DHT22;2228;48.140;11.488;2023-04-03T14:41:28;9.50;99.90
4431;DHT22;2228;48.140;11.488;2023-04-03T14:43:54;11.00;99.90
4431;DHT22;2228;48.140;11.488;2023-04-03T14:46:26;12.10;99.90
4431;DHT22;2228;48.140;11.488;2023-04-03T14:48:55;11.90;99.90
4431;DHT22;2228;48.140;11.488;2023-04-03T14:51:23;11.20;99.90
4431;DHT22;2228;48.140;11.488;2023-04-03T14:53:50;11.20;99.90
4431;DHT22;2228;48.140;11.488;2023-04-03T14:56:19;11.90;99.90
4431;DHT22;2228;48.140;11.488;2023-04-03T14:58:52;13.40;99.90
4431;DHT22;2228;48.140;11.488;2023-04-03T15:01:20;14.50;99.90
4431;DHT22;2228;48.140;11.488;2023-04-03T15:03:48;14.00;99.90
4431;DHT22;2228;48.140;11.488;2023-04-03T15:06:20;12.30;99.90
4431;DHT22;2228;48.140;11.488;2023-04-03T15:08:48;11.20;99.90
4431;DHT22;2228;48.140;11.488;2023-04-03T15:11:15;10.50;99.90
4431;DHT22;2228;48.140;11.488;2023-04-03T15:13:57;10.10;99.90
4431;DHT22;2228;48.140;11.488;2023-04-03T15:16:24;9.20;99.90
4431;DHT22;2228;48.140;11.488;2023-04-03T15:18:53;8.60;99.90
4431;DHT22;2228;48.140;11.488;2023-04-03T15:21:20;8.40;99.90
4431;DHT22;2228;48.140;11.488;2023-04-03T15:23:47;8.30;99.90
4431;DHT22;2228;48.140;11.488;2023-04-03T15:26:14;8.20;99.90
4431;DHT22;2228;48.140;11.488;2023-04-03T15:28:42;8.10;99.90
4431;DHT22;2228;48.140;11.488;2023-04-03T15:31:09;7.40;99.90
4431;DHT22;2228;48.140;11.488;2023-04-03T15:33:36;7.90;99.90
4431;DHT22;2228;48.140;11.488;2023-04-03T15:36:07;8.60;99.90
4431;DHT22;2228;48.140;11.488;2023-04-03T15:38:37;9.00;99.90
4431;DHT22;2228;48.140;11.488;2023-04-03T15:41:04;9.10;99.90
4431;DHT22;2228;48.140;11.488;2023-04-03T15:43:31;9.30;99.90
4431;DHT22;2228;48.140;11.488;2023-04-03T15:46:01;9.20;99.90
4431;DHT22;2228;48.140;11.488;2023-04-03T15:48:29;9.20;99.90
4431;DHT22;2228;48.140;11.488;2023-04-03T15:50:56;9.00;99.90
4431;DHT22;2228;48.140;11.488;2023-04-03T15:53:24;9.00;99.90
4431;DHT22;2228;48.140;11.488;2023-04-03T15:55:51;9.20;99.90
4431;DHT22;2228;48.140;11.488;2023-04-03T15:58:18;9.30;99.90
4431;DHT22;2228;48.140;11.488;2023-04-03T16:00:45;9.40;99.90
4431;DHT22;2228;48.140;11.488;2023-04-03T16:03:15;10.40;99.90
4431;DHT22;2228;48.140;11.488;2023-04-03T16:05:43;11.90;99.90
4431;DHT22;2228;48.140;11.488;2023-04-03T16:08:10;13.80;99.90
4431;DHT22;2228;48.140;11.488;2023-04-03T16:10:39;14.00;99.90
4431;DHT22;2228;48.140;11.488;2023-04-03T16:13:06;14.30;99.90
4431;DHT22;2228;48.140;11.488;2023-04-03T16:15:34;14.90;99.90
4431;DHT22;2228;48.140;11.488;2023-04-03T16:18:02;14.60;99.90
4431;DHT22;2228;48.140;11.488;2023-04-03T16:20:29;15.40;99.90
4431;DHT22;2228;48.140;11.488;2023-04-03T16:22:57;15.20;99.90
4431;DHT22;2228;48.140;11.488;2023-04-03T16:25:27;15.40;99.90
4431;DHT22;2228;48.140;11.488;2023-04-03T16:27:55;14.90;99.90
4431;DHT22;2228;48.140;11.488;2023-04-03T16:30:22;13.70;99.90
4431;DHT22;2228;48.140;11.488;2023-04-03T16:32:49;12.30;99.90
4431;DHT22;2228;48.140;11.488;2023-04-03T16:35:16;11.00;99.90
4431;DHT22;2228;48.140;11.488;2023-04-03T16:37:43;10.50;99.90
4431;DHT22;2228;48.140;11.488;2023-04-03T16:40:11;10.10;99.90
4431;DHT22;2228;48.140;11.488;2023-04-03T16:42:38;9.40;99.90
4431;DHT22;2228;48.140;11.488;2023-04-03T16:45:08;9.00;99.90
4431;DHT22;2228;48.140;11.488;2023-04-03T16:47:35;8.10;99.90
4431;DHT22;2228;48.140;11.488;2023-04-03T16:50:02;7.60;99.90
4431;DHT22;2228;48.140;11.488;2023-04-03T16:52:29;7.20;99.90
4431;DHT22;2228;48.140;11.488;2023-04-03T16:54:56;6.70;99.90
4431;DHT22;2228;48.140;11.488;2023-04-03T16:57:24;6.50;99.90
4431;DHT22;2228;48.140;11.488;2023-04-03T16:59:52;6.40;99.90
4431;DHT22;2228;48.140;11.488;2023-04-03T17:02:21;6.20;99.90
4431;DHT22;2228;48.140;11.488;2023-04-03T17:04:50;6.20;99.90
4431;DHT22;2228;48.140;11.488;2023-04-03T17:07:18;6.20;99.90
4431;DHT22;2228;48.140;11.488;2023-04-03T17:09:45;5.90;99.90
4431;DHT22;2228;48.140;11.488;2023-04-03T17:12:12;6.00;99.90
4431;DHT22;2228;48.140;11.488;2023-04-03T17:14:38;5.90;99.90
4431;DHT22;2228;48.140;11.488;2023-04-03T17:17:06;5.80;99.90
4431;DHT22;2228;48.140;11.488;2023-04-03T17:19:35;5.60;99.90
4431;DHT22;2228;48.140;11.488;2023-04-03T17:22:03;5.50;99.90
4431;DHT22;2228;48.140;11.488;2023-04-03T17:24:30;5.30;99.90
4431;DHT22;2228;48.140;11.488;2023-04-03T17:26:57;5.10;99.90
4431;DHT22;2228;48.140;11.488;2023-04-03T17:29:24;5.00;99.90
4431;DHT22;2228;48.140;11.488;2023-04-03T17:31:51;4.90;99.90
4431;DHT22;2228;48.140;11.488;2023-04-03T17:34:18;4.90;99.90
4431;DHT22;2228;48.140;11.488;2023-04-03T17:36:47;4.90;99.90
4431;DHT22;2228;48.140;11.488;2023-04-03T17:39:16;4.80;99.90
4431;DHT22;2228;48.140;11.488;2023-04-03T17:41:43;4.80;99.90
4431;DHT22;2228;48.140;11.488;2023-04-03T17:44:10;4.80;99.90
4431;DHT22;2228;48.140;11.488;2023-04-03T17:46:37;4.80;99.90
4431;DHT22;2228;48.140;11.488;2023-04-03T17:49:04;4.90;99.90
4431;DHT22;2228;48.140;11.488;2023-04-03T17:51:34;4.70;99.90
4431;DHT22;2228;48.140;11.488;2023-04-03T17:54:03;4.50;99.90
4431;DHT22;2228;48.140;11.488;2023-04-03T17:56:30;4.60;99.90
4431;DHT22;2228;48.140;11.488;2023-04-03T17:58:57;4.40;99.90
4431;DHT22;2228;48.140;11.488;2023-04-03T18:01:26;4.40;99.90
4431;DHT22;2228;48.140;11.488;2023-04-03T18:03:55;4.20;99.90
4431;DHT22;2228;48.140;11.488;2023-04-03T18:06:26;4.30;99.90
4431;DHT22;2228;48.140;11.488;2023-04-03T18:08:55;4.30;99.90
4431;DHT22;2228;48.140;11.488;2023-04-03T18:11:27;4.40;99.90
4431;DHT22;2228;48.140;11.488;2023-04-03T18:13:57;4.40;99.90
4431;DHT22;2228;48.140;11.488;2023-04-03T18:16:27;4.40;99.90
4431;DHT22;2228;48.140;11.488;2023-04-03T18:18:54;4.40;99.90
4431;DHT22;2228;48.140;11.488;2023-04-03T18:21:32;4.40;99.90
4431;DHT22;2228;48.140;11.488;2023-04-03T18:24:25;4.30;99.90
4431;DHT22;2228;48.140;11.488;2023-04-03T18:34:31;4.20;99.90
4431;DHT22;2228;48.140;11.488;2023-04-03T18:37:19;4.20;99.90
4431;DHT22;2228;48.140;11.488;2023-04-03T18:39:51;4.00;99.90
4431;DHT22;2228;48.140;11.488;2023-04-03T18:42:20;3.90;99.90
4431;DHT22;2228;48.140;11.488;2023-04-03T18:44:52;3.60;99.90
4431;DHT22;2228;48.140;11.488;2023-04-03T18:47:20;3.70;99.90
4431;DHT22;2228;48.140;11.488;2023-04-03T18:49:48;3.60;99.90
4431;DHT22;2228;48.140;11.488;2023-04-03T18:52:15;3.60;99.90
4431;DHT22;2228;48.140;11.488;2023-04-03T18:54:42;3.30;99.90
4431;DHT22;2228;48.140;11.488;2023-04-03T18:57:09;3.40;99.90
4431;DHT22;2228;48.140;11.488;2023-04-03T18:59:36;3.40;99.90
4431;DHT22;2228;48.140;11.488;2023-04-03T19:02:04;3.40;99.90
4431;DHT22;2228;48.140;11.488;2023-04-03T19:04:31;3.20;99.90
4431;DHT22;2228;48.140;11.488;2023-04-03T19:06:59;3.10;99.90
4431;DHT22;2228;48.140;11.488;2023-04-03T19:09:28;3.00;99.90
4431;DHT22;2228;48.140;11.488;2023-04-03T19:11:55;3.00;99.90
4431;DHT22;2228;48.140;11.488;2023-04-03T19:14:22;2.90;99.90
4431;DHT22;2228;48.140;11.488;2023-04-03T19:16:49;2.90;99.90
4431;DHT22;2228;48.140;11.488;2023-04-03T19:19:16;3.00;99.90
4431;DHT22;2228;48.140;11.488;2023-04-03T19:21:43;3.00;99.90
4431;DHT22;2228;48.140;11.488;2023-04-03T19:24:12;2.80;99.90
4431;DHT22;2228;48.140;11.488;2023-04-03T19:26:40;2.80;99.90
4431;DHT22;2228;48.140;11.488;2023-04-03T19:29:08;2.80;99.90
4431;DHT22;2228;48.140;11.488;2023-04-03T19:31:36;2.80;99.90
4431;DHT22;2228;48.140;11.488;2023-04-03T19:34:04;2.70;99.90
4431;DHT22;2228;48.140;11.488;2023-04-03T19:36:33;2.70;99.90
4431;DHT22;2228;48.140;11.488;2023-04-03T19:39:00;2.60;99.90
4431;DHT22;2228;48.140;11.488;2023-04-03T20:35:30;1.50;1.00
4431;DHT22;2228;48.140;11.488;2023-04-03T20:37:57;1.40;1.00
4431;DHT22;2228;48.140;11.488;2023-04-03T20:40:25;1.50;1.00
4431;DHT22;2228;48.140;11.488;2023-04-03T20:42:52;1.50;1.00
4431;DHT22;2228;48.140;11.488;2023-04-03T20:45:19;1.50;1.00
4431;DHT22;2228;48.140;11.488;2023-04-03T20:47:47;1.60;1.00
4431;DHT22;2228;48.140;11.488;2023-04-03T20:50:16;1.60;1.00
4431;DHT22;2228;48.140;11.488;2023-04-03T20:52:46;1.50;1.00
